Time;durP1;ratioP1;P1;durP2;ratioP2;P2;SDS_P1;SDS_P2;PMS_P1;PMS_P2;Temp;Humidity;BMP_temperature;BMP_pressure;BME280_temperature;BME280_humidity;BME280_pressure;Samples;Min_cycle;Max_cycle;Signal;HPM_P1;HPM_P2
2023/08/30 00:00:58;;;;;;;10.43;6.00;;;;;;;;;;5056075;28;20039;-76
2023/08/30 00:03:23;;;;;;;11.50;5.93;;;;;;;;;;5056258;28;20479;-76
2023/08/30 00:05:49;;;;;;;9.68;5.80;;;;;;;;;;5055154;28;20033;-76
2023/08/30 00:08:18;;;;;;;11.30;6.07;;;;;;;;;;5073202;28;20035;-76
2023/08/30 00:10:44;;;;;;;11.52;6.72;;;;;;;;;;5071256;28;20020;-76
2023/08/30 00:13:09;;;;;;;8.52;5.93;;;;;;;;;;5075462;28;20023;-76
2023/08/30 00:15:34;;;;;;;11.18;5.68;;;;;;;;;;5075984;28;20024;-76
2023/08/30 00:18:00;;;;;;;13.07;5.45;;;;;;;;;;5076167;28;20130;-76
2023/08/30 00:20:26;;;;;;;9.35;4.85;;;;;;;;;;5075661;28;20482;-76
2023/08/30 00:22:54;;;;;;;9.23;4.97;;;;;;;;;;5058202;28;20025;-76
2023/08/30 00:25:20;;;;;;;10.68;5.28;;;;;;;;;;5075854;28;20021;-76
2023/08/30 00:27:45;;;;;;;13.57;6.15;;;;;;;;;;5074708;28;20485;-76
2023/08/30 00:30:11;;;;;;;11.18;6.18;;;;;;;;;;5074829;28;20398;-76
2023/08/30 00:32:37;;;;;;;10.88;5.97;;;;;;;;;;5075969;28;20440;-76
2023/08/30 00:35:02;;;;;;;10.68;5.43;;;;;;;;;;5075271;28;20032;-76
2023/08/30 00:37:30;;;;;;;9.77;4.85;;;;;;;;;;5075838;28;20021;-76
2023/08/30 00:39:55;;;;;;;9.73;4.72;;;;;;;;;;5075069;28;20024;-76
2023/08/30 00:42:20;;;;;;;8.27;4.82;;;;;;;;;;5075696;28;20031;-76
2023/08/30 00:44:46;;;;;;;11.65;5.28;;;;;;;;;;5075561;28;20051;-76
2023/08/30 00:47:11;;;;;;;9.80;4.75;;;;;;;;;;5075589;28;20470;-75
2023/08/30 00:49:36;;;;;;;10.70;5.18;;;;;;;;;;5074239;28;20020;-76
2023/08/30 00:52:06;;;;;;;9.52;6.47;;;;;;;;;;5074419;28;20414;-76
2023/08/30 00:54:31;;;;;;;9.95;4.80;;;;;;;;;;5074423;28;20172;-76
2023/08/30 00:56:57;;;;;;;8.00;5.90;;;;;;;;;;5075469;28;20025;-76
2023/08/30 00:59:22;;;;;;;10.63;5.50;;;;;;;;;;5074284;28;20024;-76
2023/08/30 01:01:48;;;;;;;11.48;5.38;;;;;;;;;;5073453;28;20047;-76
2023/08/30 01:04:14;;;;;;;9.48;4.72;;;;;;;;;;5074013;28;20553;-76
2023/08/30 01:06:39;;;;;;;10.15;4.80;;;;;;;;;;5075284;28;20020;-76
2023/08/30 01:09:05;;;;;;;9.75;5.05;;;;;;;;;;5074091;28;20024;-76
2023/08/30 01:11:43;;;;;;;11.02;5.45;;;;;;;;;;5073707;28;20032;-76
2023/08/30 01:14:13;;;;;;;9.23;5.10;;;;;;;;;;5074003;28;20016;-76
2023/08/30 01:16:39;;;;;;;9.27;5.05;;;;;;;;;;5073939;28;20070;-76
2023/08/30 01:19:10;;;;;;;9.98;5.90;;;;;;;;;;5075122;28;20024;-76
2023/08/30 01:21:36;;;;;;;10.88;6.05;;;;;;;;;;5073736;28;20394;-76
2023/08/30 01:24:03;;;;;;;10.50;6.00;;;;;;;;;;5075139;28;20020;-76
2023/08/30 01:26:39;;;;;;;11.10;5.35;;;;;;;;;;5074836;28;20035;-76
2023/08/30 01:29:05;;;;;;;11.00;5.18;;;;;;;;;;5074879;28;20028;-76
2023/08/30 01:31:33;;;;;;;11.95;6.40;;;;;;;;;;5075093;28;20451;-76
2023/08/30 01:33:59;;;;;;;8.20;5.15;;;;;;;;;;5073486;28;20086;-76
2023/08/30 01:36:24;;;;;;;11.20;6.43;;;;;;;;;;5073435;28;20024;-76
2023/08/30 01:38:50;;;;;;;8.52;5.30;;;;;;;;;;5074519;28;20024;-76
2023/08/30 01:41:16;;;;;;;11.65;5.78;;;;;;;;;;5073760;28;20047;-76
2023/08/30 01:43:42;;;;;;;11.23;5.35;;;;;;;;;;5072802;28;20029;-76
2023/08/30 01:46:07;;;;;;;10.48;5.10;;;;;;;;;;5074442;28;20031;-76
2023/08/30 01:48:34;;;;;;;10.50;6.55;;;;;;;;;;5073195;28;20439;-75
2023/08/30 01:51:00;;;;;;;10.05;5.00;;;;;;;;;;5073200;28;20036;-75
2023/08/30 01:53:26;;;;;;;8.95;5.05;;;;;;;;;;5072709;28;20027;-75
2023/08/30 01:55:51;;;;;;;6.25;3.17;;;;;;;;;;5074300;28;20033;-75
2023/08/30 01:58:16;;;;;;;8.55;3.97;;;;;;;;;;5073167;28;20020;-75
2023/08/30 02:00:42;;;;;;;12.25;5.75;;;;;;;;;;5056380;28;20029;-75
2023/08/30 02:03:11;;;;;;;10.93;5.13;;;;;;;;;;5074067;28;20028;-75
2023/08/30 02:05:41;;;;;;;11.40;5.50;;;;;;;;;;5072256;28;20028;-75
2023/08/30 02:08:14;;;;;;;10.80;5.15;;;;;;;;;;5072899;28;20025;-75
2023/08/30 02:10:41;;;;;;;10.57;5.97;;;;;;;;;;5074070;28;20027;-75
2023/08/30 02:13:07;;;;;;;10.07;5.07;;;;;;;;;;5072396;28;20070;-75
2023/08/30 02:15:33;;;;;;;11.27;5.55;;;;;;;;;;5074449;28;20027;-75
2023/08/30 02:17:59;;;;;;;10.00;6.00;;;;;;;;;;5072721;28;20021;-76
2023/08/30 02:20:25;;;;;;;8.65;5.20;;;;;;;;;;5072708;28;20025;-76
2023/08/30 02:22:53;;;;;;;12.18;6.53;;;;;;;;;;5072675;28;20020;-75
2023/08/30 02:25:18;;;;;;;10.63;5.20;;;;;;;;;;5072169;28;20081;-75
2023/08/30 02:27:43;;;;;;;13.88;6.38;;;;;;;;;;5073827;28;20483;-75
2023/08/30 02:30:09;;;;;;;9.43;4.75;;;;;;;;;;5073832;28;20028;-75
2023/08/30 02:32:34;;;;;;;10.60;5.10;;;;;;;;;;5072171;28;20048;-75
2023/08/30 02:35:00;;;;;;;10.05;5.18;;;;;;;;;;5073950;28;20478;-75
2023/08/30 02:37:25;;;;;;;13.52;6.63;;;;;;;;;;5072424;28;20056;-75
2023/08/30 02:39:53;;;;;;;12.68;6.45;;;;;;;;;;5073677;28;20051;-75
2023/08/30 02:42:19;;;;;;;11.27;6.05;;;;;;;;;;5073092;28;20052;-75
2023/08/30 02:44:44;;;;;;;10.77;5.30;;;;;;;;;;5072396;28;20107;-75
2023/08/30 02:47:09;;;;;;;11.45;6.20;;;;;;;;;;5072419;28;20029;-75
2023/08/30 02:49:35;;;;;;;9.93;4.80;;;;;;;;;;5072560;28;20124;-75
2023/08/30 02:52:00;;;;;;;7.82;4.72;;;;;;;;;;5071930;28;20031;-75
2023/08/30 02:54:25;;;;;;;13.40;6.20;;;;;;;;;;5074048;28;20020;-76
2023/08/30 02:56:51;;;;;;;9.77;5.82;;;;;;;;;;5072297;28;20104;-75
2023/08/30 02:59:16;;;;;;;11.70;5.22;;;;;;;;;;5073473;28;20032;-75
2023/08/30 03:01:41;;;;;;;12.18;6.03;;;;;;;;;;5073519;28;20059;-75
2023/08/30 03:04:07;;;;;;;13.73;6.97;;;;;;;;;;5076097;28;20407;-75
2023/08/30 03:06:33;;;;;;;16.05;7.97;;;;;;;;;;5076464;28;20037;-75
2023/08/30 03:08:59;;;;;;;15.38;8.00;;;;;;;;;;5076296;28;20096;-75
2023/08/30 03:11:24;;;;;;;12.13;6.50;;;;;;;;;;5077611;28;20496;-75
2023/08/30 03:13:50;;;;;;;14.30;7.47;;;;;;;;;;5059108;28;20031;-75
2023/08/30 03:16:16;;;;;;;16.65;7.70;;;;;;;;;;5059514;28;20058;-75
2023/08/30 03:18:42;;;;;;;16.20;7.15;;;;;;;;;;5077667;28;20114;-75
2023/08/30 03:21:08;;;;;;;13.27;6.45;;;;;;;;;;5073604;28;20456;-75
2023/08/30 03:23:33;;;;;;;17.48;8.18;;;;;;;;;;5078349;28;20131;-75
2023/08/30 03:26:00;;;;;;;17.45;9.32;;;;;;;;;;5087132;28;20115;-75
2023/08/30 03:28:25;;;;;;;23.00;10.48;;;;;;;;;;5095881;28;20031;-75
2023/08/30 03:30:50;;;;;;;17.63;8.85;;;;;;;;;;5096174;28;20019;-75
2023/08/30 03:33:16;;;;;;;18.27;9.15;;;;;;;;;;5095441;28;20089;-75
2023/08/30 03:35:41;;;;;;;19.92;8.73;;;;;;;;;;5096652;28;20039;-75
2023/08/30 03:38:06;;;;;;;21.60;10.77;;;;;;;;;;5095954;28;20474;-75
2023/08/30 03:40:32;;;;;;;23.83;10.88;;;;;;;;;;5096045;28;20103;-75
2023/08/30 03:42:57;;;;;;;24.00;11.15;;;;;;;;;;5096177;28;20416;-75
2023/08/30 03:45:22;;;;;;;22.92;10.05;;;;;;;;;;5095846;28;20036;-75
2023/08/30 03:47:48;;;;;;;20.75;9.13;;;;;;;;;;5078520;28;20115;-75
2023/08/30 03:50:13;;;;;;;26.10;12.90;;;;;;;;;;5078802;28;20074;-75
2023/08/30 03:52:38;;;;;;;29.00;12.00;;;;;;;;;;5095797;28;20463;-75
2023/08/30 03:55:04;;;;;;;23.45;10.95;;;;;;;;;;5095028;28;20032;-75
2023/08/30 03:57:29;;;;;;;33.70;12.18;;;;;;;;;;5055046;28;20025;-75
2023/08/30 03:59:54;;;;;;;29.13;12.20;;;;;;;;;;5055003;28;20108;-75
2023/08/30 04:02:20;;;;;;;28.77;12.10;;;;;;;;;;5055313;28;20032;-75
2023/08/30 04:04:48;;;;;;;33.17;13.55;;;;;;;;;;5055246;28;20403;-75
2023/08/30 04:07:14;;;;;;;26.00;12.23;;;;;;;;;;5059280;28;20020;-75
2023/08/30 04:09:39;;;;;;;30.23;13.45;;;;;;;;;;5055924;28;20083;-75
2023/08/30 04:12:05;;;;;;;30.77;12.93;;;;;;;;;;5056368;28;20021;-75
2023/08/30 04:14:30;;;;;;;30.75;14.75;;;;;;;;;;5054988;28;20390;-75
2023/08/30 04:16:56;;;;;;;26.35;12.40;;;;;;;;;;5056289;28;20429;-75
2023/08/30 04:19:21;;;;;;;29.83;12.52;;;;;;;;;;5056154;28;20029;-75
2023/08/30 04:21:46;;;;;;;25.45;12.15;;;;;;;;;;5040103;28;20025;-75
2023/08/30 04:24:12;;;;;;;27.85;11.60;;;;;;;;;;5055830;28;20029;-75
2023/08/30 04:26:37;;;;;;;22.73;9.52;;;;;;;;;;5038101;28;20380;-75
2023/08/30 04:29:03;;;;;;;16.35;7.45;;;;;;;;;;5056012;28;20029;-75
2023/08/30 04:31:28;;;;;;;16.52;7.93;;;;;;;;;;5058211;28;20036;-75
2023/08/30 04:33:55;;;;;;;19.17;8.23;;;;;;;;;;5055118;28;20021;-75
2023/08/30 04:36:23;;;;;;;21.52;9.63;;;;;;;;;;5041160;28;20032;-75
2023/08/30 04:38:48;;;;;;;27.75;11.80;;;;;;;;;;5056999;28;20048;-75
2023/08/30 04:41:14;;;;;;;26.40;10.85;;;;;;;;;;5065325;28;20474;-75
2023/08/30 04:43:39;;;;;;;26.48;12.25;;;;;;;;;;5075721;28;20036;-75
2023/08/30 04:46:04;;;;;;;27.25;11.68;;;;;;;;;;5076214;28;20032;-75
2023/08/30 04:48:29;;;;;;;26.95;11.15;;;;;;;;;;5074487;28;20016;-75
2023/08/30 04:51:05;;;;;;;26.98;12.88;;;;;;;;;;5075589;28;20029;-75
2023/08/30 04:53:30;;;;;;;18.98;9.38;;;;;;;;;;5075657;28;20514;-75
2023/08/30 04:55:56;;;;;;;25.27;11.05;;;;;;;;;;5073718;28;20067;-75
2023/08/30 04:58:21;;;;;;;21.20;9.80;;;;;;;;;;5073285;28;20029;-75
2023/08/30 05:00:46;;;;;;;22.70;9.98;;;;;;;;;;5075766;28;20478;-75
2023/08/30 05:03:12;;;;;;;21.23;10.50;;;;;;;;;;5073986;28;20028;-75
2023/08/30 05:05:37;;;;;;;18.30;7.95;;;;;;;;;;5073400;28;20041;-75
2023/08/30 05:08:03;;;;;;;15.68;7.65;;;;;;;;;;5057332;28;20032;-75
2023/08/30 05:10:29;;;;;;;20.85;9.15;;;;;;;;;;5057344;28;20106;-75
2023/08/30 05:12:54;;;;;;;22.90;10.93;;;;;;;;;;5074642;28;20017;-75
2023/08/30 05:15:20;;;;;;;23.95;11.13;;;;;;;;;;5074966;28;20040;-75
2023/08/30 05:17:45;;;;;;;17.42;9.40;;;;;;;;;;5073930;28;20021;-75
2023/08/30 05:20:10;;;;;;;18.80;8.45;;;;;;;;;;5074043;28;20051;-75
2023/08/30 05:22:36;;;;;;;20.25;9.40;;;;;;;;;;5075186;28;20021;-75
2023/08/30 05:25:01;;;;;;;20.63;10.23;;;;;;;;;;5073737;28;20402;-75
2023/08/30 05:27:27;;;;;;;29.63;13.57;;;;;;;;;;5074910;28;20478;-75
2023/08/30 05:29:52;;;;;;;29.83;11.90;;;;;;;;;;5077235;28;20058;-75
2023/08/30 05:32:18;;;;;;;27.15;11.25;;;;;;;;;;5093839;28;20050;-75
2023/08/30 05:34:43;;;;;;;26.67;10.10;;;;;;;;;;5093279;28;20035;-75
2023/08/30 05:37:08;;;;;;;22.33;8.85;;;;;;;;;;5089909;28;20027;-75
2023/08/30 05:39:34;;;;;;;28.00;10.80;;;;;;;;;;5056866;28;20024;-75
2023/08/30 05:41:59;;;;;;;19.80;8.57;;;;;;;;;;5073236;28;20100;-75
2023/08/30 05:44:25;;;;;;;28.70;11.65;;;;;;;;;;5056780;28;20052;-75
2023/08/30 05:46:50;;;;;;;33.67;13.70;;;;;;;;;;5072661;28;20021;-75
2023/08/30 05:49:15;;;;;;;26.20;12.25;;;;;;;;;;5073305;28;20036;-75
2023/08/30 05:51:41;;;;;;;23.20;9.50;;;;;;;;;;5074527;28;20024;-75
2023/08/30 05:54:06;;;;;;;23.15;10.50;;;;;;;;;;5074593;28;20035;-75
2023/08/30 05:56:31;;;;;;;21.80;8.43;;;;;;;;;;5073156;28;20028;-74
2023/08/30 05:58:56;;;;;;;22.38;8.57;;;;;;;;;;5056024;28;20086;-75
2023/08/30 06:01:22;;;;;;;17.83;9.05;;;;;;;;;;5072889;28;20067;-75
2023/08/30 06:03:47;;;;;;;21.23;9.55;;;;;;;;;;5072903;28;20063;-73
2023/08/30 06:06:13;;;;;;;18.95;8.88;;;;;;;;;;5072710;28;20032;-75
2023/08/30 06:08:38;;;;;;;22.42;10.38;;;;;;;;;;5074218;28;20375;-75
2023/08/30 06:11:03;;;;;;;18.15;7.88;;;;;;;;;;5078718;28;20024;-73
2023/08/30 06:13:28;;;;;;;21.42;10.75;;;;;;;;;;5093772;28;20024;-73
2023/08/30 06:15:54;;;;;;;21.27;9.95;;;;;;;;;;5093076;28;20107;-73
2023/08/30 06:18:19;;;;;;;18.38;8.40;;;;;;;;;;5094097;28;20073;-73
2023/08/30 06:20:44;;;;;;;17.45;7.18;;;;;;;;;;5094182;28;20069;-73
2023/08/30 06:23:11;;;;;;;25.17;11.93;;;;;;;;;;5093020;28;20038;-73
2023/08/30 06:25:36;;;;;;;24.20;11.13;;;;;;;;;;5092805;28;20028;-73
2023/08/30 06:28:03;;;;;;;22.20;12.80;;;;;;;;;;5093462;28;20444;-73
2023/08/30 06:30:32;;;;;;;15.88;8.80;;;;;;;;;;5093982;28;20058;-73
2023/08/30 06:32:57;;;;;;;17.08;9.00;;;;;;;;;;5092787;28;20431;-73
2023/08/30 06:35:23;;;;;;;22.73;10.70;;;;;;;;;;5093851;28;20050;-73
2023/08/30 06:37:48;;;;;;;20.13;9.35;;;;;;;;;;5074931;28;20028;-73
2023/08/30 06:40:14;;;;;;;14.95;7.70;;;;;;;;;;5093930;28;20056;-73
2023/08/30 06:42:39;;;;;;;19.55;8.55;;;;;;;;;;5093257;28;20427;-73
2023/08/30 06:45:05;;;;;;;19.00;8.98;;;;;;;;;;5092877;28;20162;-73
2023/08/30 06:47:30;;;;;;;24.05;10.63;;;;;;;;;;5092685;28;20028;-73
2023/08/30 06:49:57;;;;;;;18.35;9.52;;;;;;;;;;5093718;28;20412;-73
2023/08/30 06:52:22;;;;;;;20.75;8.77;;;;;;;;;;5092563;28;20024;-73
2023/08/30 06:54:47;;;;;;;17.90;7.93;;;;;;;;;;5093674;28;20039;-73
2023/08/30 06:57:12;;;;;;;17.85;9.30;;;;;;;;;;5093240;28;20390;-73
2023/08/30 06:59:38;;;;;;;23.77;11.02;;;;;;;;;;5092292;28;20028;-73
2023/08/30 07:02:06;;;;;;;16.48;9.30;;;;;;;;;;5093855;28;20070;-73
2023/08/30 07:04:31;;;;;;;14.55;8.40;;;;;;;;;;5087076;22;20033;-73
2023/08/30 07:06:56;;;;;;;21.15;10.63;;;;;;;;;;5053281;28;20033;-73
2023/08/30 07:09:28;;;;;;;25.63;11.15;;;;;;;;;;5053392;28;20029;-73
2023/08/30 07:11:53;;;;;;;20.60;10.93;;;;;;;;;;5052787;28;20029;-73
2023/08/30 07:14:20;;;;;;;23.23;10.13;;;;;;;;;;5036300;28;20100;-73
2023/08/30 07:16:45;;;;;;;25.45;11.57;;;;;;;;;;5035629;28;20111;-73
2023/08/30 07:19:10;;;;;;;17.90;9.15;;;;;;;;;;5052749;28;20559;-73
2023/08/30 07:21:38;;;;;;;25.23;12.35;;;;;;;;;;5035321;28;20075;-73
2023/08/30 07:24:03;;;;;;;23.23;10.90;;;;;;;;;;5051950;28;20048;-73
2023/08/30 07:26:28;;;;;;;22.02;10.63;;;;;;;;;;5053403;28;20032;-73
2023/08/30 07:28:54;;;;;;;17.15;9.18;;;;;;;;;;5053103;28;20024;-73
2023/08/30 07:31:21;;;;;;;21.42;12.43;;;;;;;;;;5052635;28;20498;-73
2023/08/30 07:33:47;;;;;;;19.42;10.82;;;;;;;;;;5053177;28;20025;-73
2023/08/30 07:36:12;;;;;;;16.02;9.70;;;;;;;;;;5051877;28;20032;-73
2023/08/30 07:38:37;;;;;;;16.98;10.20;;;;;;;;;;5052983;28;20036;-73
2023/08/30 07:41:03;;;;;;;18.48;10.05;;;;;;;;;;5051550;28;20028;-73
2023/08/30 07:43:28;;;;;;;21.48;9.85;;;;;;;;;;5051822;28;20031;-73
2023/08/30 07:45:54;;;;;;;15.70;7.72;;;;;;;;;;5052019;28;20052;-74
2023/08/30 07:48:19;;;;;;;19.25;9.25;;;;;;;;;;5053509;28;20107;-73
2023/08/30 07:50:44;;;;;;;20.48;12.95;;;;;;;;;;5071686;28;20479;-73
2023/08/30 07:53:10;;;;;;;19.52;10.25;;;;;;;;;;5056804;28;20033;-73
2023/08/30 07:55:36;;;;;;;18.90;11.70;;;;;;;;;;5038762;28;20029;-73
2023/08/30 07:58:02;;;;;;;17.15;8.95;;;;;;;;;;5055374;28;20033;-74
2023/08/30 08:00:28;;;;;;;21.52;11.30;;;;;;;;;;5055209;28;20056;-73
2023/08/30 08:02:53;;;;;;;18.88;9.85;;;;;;;;;;5055979;28;20063;-73
2023/08/30 08:05:18;;;;;;;21.88;11.55;;;;;;;;;;5055190;28;20039;-73
2023/08/30 08:07:44;;;;;;;21.38;11.90;;;;;;;;;;5038583;28;20395;-74
2023/08/30 08:10:09;;;;;;;19.90;10.45;;;;;;;;;;5056324;28;20498;-74
2023/08/30 08:12:35;;;;;;;22.98;10.73;;;;;;;;;;5054544;28;20016;-74
2023/08/30 08:15:00;;;;;;;18.08;9.77;;;;;;;;;;5055284;28;20048;-74
2023/08/30 08:17:25;;;;;;;20.27;10.10;;;;;;;;;;5055150;28;20078;-74
2023/08/30 08:19:51;;;;;;;20.05;11.93;;;;;;;;;;5055091;28;20075;-74
2023/08/30 08:22:19;;;;;;;18.75;11.18;;;;;;;;;;5054438;28;20542;-74
2023/08/30 08:24:45;;;;;;;22.08;11.77;;;;;;;;;;5054877;28;20109;-74
2023/08/30 08:27:11;;;;;;;25.38;11.68;;;;;;;;;;5055814;28;20053;-73
2023/08/30 08:29:37;;;;;;;19.77;11.25;;;;;;;;;;5054649;28;20506;-72
2023/08/30 08:32:03;;;;;;;20.05;11.10;;;;;;;;;;5055076;28;20048;-72
2023/08/30 08:34:28;;;;;;;24.85;13.23;;;;;;;;;;5054653;28;20048;-72
2023/08/30 08:36:53;;;;;;;22.45;11.93;;;;;;;;;;5055583;28;20051;-73
2023/08/30 08:39:18;;;;;;;21.60;12.90;;;;;;;;;;5037874;28;20025;-73
2023/08/30 08:41:44;;;;;;;22.65;11.63;;;;;;;;;;5055602;28;20025;-73
2023/08/30 08:44:10;;;;;;;24.42;12.43;;;;;;;;;;5055448;28;20017;-72
2023/08/30 08:46:38;;;;;;;28.40;14.13;;;;;;;;;;5053573;28;20025;-72
2023/08/30 08:49:16;;;;;;;23.08;13.02;;;;;;;;;;5037750;28;20033;-72
2023/08/30 08:51:43;;;;;;;25.48;12.75;;;;;;;;;;5054214;28;20025;-73
2023/08/30 08:54:09;;;;;;;20.73;14.18;;;;;;;;;;5053537;28;20086;-72
2023/08/30 08:56:35;;;;;;;20.10;12.27;;;;;;;;;;5054362;28;20021;-72
2023/08/30 08:59:00;;;;;;;21.15;11.90;;;;;;;;;;5055128;28;20025;-73
2023/08/30 09:01:26;;;;;;;22.20;12.77;;;;;;;;;;5053531;28;20119;-72
2023/08/30 09:03:51;;;;;;;21.85;13.38;;;;;;;;;;5054554;28;20066;-72
2023/08/30 09:06:17;;;;;;;23.30;12.00;;;;;;;;;;5053719;28;20407;-72
2023/08/30 09:08:43;;;;;;;21.20;12.15;;;;;;;;;;5053953;28;20029;-72
2023/08/30 09:11:08;;;;;;;18.85;11.15;;;;;;;;;;5055062;28;20055;-72
2023/08/30 09:13:33;;;;;;;21.42;12.32;;;;;;;;;;5054933;28;20025;-72
2023/08/30 09:15:59;;;;;;;21.52;11.75;;;;;;;;;;5053751;28;20028;-73
2023/08/30 09:18:27;;;;;;;22.75;11.88;;;;;;;;;;5036396;28;20518;-72
2023/08/30 09:20:53;;;;;;;19.48;10.07;;;;;;;;;;5055153;28;20083;-72
2023/08/30 09:23:21;;;;;;;16.83;9.70;;;;;;;;;;5047529;28;20437;-72
2023/08/30 09:25:47;;;;;;;15.15;8.98;;;;;;;;;;5053634;28;20021;-71
2023/08/30 09:28:13;;;;;;;16.15;8.93;;;;;;;;;;5052962;28;20028;-72
2023/08/30 09:30:39;;;;;;;14.00;7.95;;;;;;;;;;5053907;28;20013;-72
2023/08/30 09:33:05;;;;;;;16.50;9.20;;;;;;;;;;5054409;28;20086;-72
2023/08/30 09:35:31;;;;;;;15.93;8.10;;;;;;;;;;5028285;28;20021;-71
2023/08/30 09:37:56;;;;;;;14.75;9.00;;;;;;;;;;5032849;28;20030;-72
2023/08/30 09:40:22;;;;;;;16.48;8.93;;;;;;;;;;5034331;28;20029;-71
2023/08/30 09:42:47;;;;;;;16.00;8.25;;;;;;;;;;5033075;28;20018;-72
2023/08/30 09:45:22;;;;;;;15.45;8.00;;;;;;;;;;5033413;28;20033;-72
2023/08/30 09:47:48;;;;;;;15.60;8.20;;;;;;;;;;5034589;28;20052;-72
2023/08/30 09:50:17;;;;;;;15.73;9.25;;;;;;;;;;5037814;28;20021;-72
2023/08/30 09:52:43;;;;;;;15.50;8.90;;;;;;;;;;5033262;28;20021;-72
2023/08/30 09:55:09;;;;;;;14.18;8.95;;;;;;;;;;5049189;28;20368;-72
2023/08/30 09:57:34;;;;;;;13.18;8.95;;;;;;;;;;5034232;28;20068;-72
2023/08/30 10:00:00;;;;;;;18.35;9.95;;;;;;;;;;5049901;28;20025;-73
2023/08/30 10:02:26;;;;;;;17.42;9.23;;;;;;;;;;5049708;28;20024;-72
2023/08/30 10:04:51;;;;;;;16.90;8.85;;;;;;;;;;5051329;28;20042;-72
2023/08/30 10:07:17;;;;;;;19.10;10.15;;;;;;;;;;5052430;28;20064;-73
2023/08/30 10:09:43;;;;;;;17.85;10.30;;;;;;;;;;5052687;28;20029;-72
2023/08/30 10:12:10;;;;;;;17.08;10.63;;;;;;;;;;5053891;28;20025;-72
2023/08/30 10:14:36;;;;;;;18.23;10.38;;;;;;;;;;5054066;28;20025;-74
2023/08/30 10:17:07;;;;;;;14.80;11.38;;;;;;;;;;5036060;28;20398;-72
2023/08/30 10:19:32;;;;;;;14.65;8.40;;;;;;;;;;5053717;28;20028;-71
2023/08/30 10:22:04;;;;;;;11.57;6.72;;;;;;;;;;5051947;28;20020;-71
2023/08/30 10:24:37;;;;;;;12.63;5.65;;;;;;;;;;5052397;28;20013;-71
2023/08/30 10:27:04;;;;;;;9.77;5.32;;;;;;;;;;5051924;28;20035;-71
2023/08/30 10:29:31;;;;;;;9.27;5.38;;;;;;;;;;5051531;28;20537;-71
2023/08/30 10:32:02;;;;;;;9.55;5.78;;;;;;;;;;5052166;28;20040;-71
2023/08/30 10:34:31;;;;;;;;;;;;;;;;;;5052524;28;20029;-71
2023/08/30 10:37:02;;;;;;;13.95;5.93;;;;;;;;;;5052172;28;19951;-71
2023/08/30 10:39:34;;;;;;;10.85;6.40;;;;;;;;;;5052451;28;20029;-71
2023/08/30 10:42:00;;;;;;;12.00;6.30;;;;;;;;;;5051652;28;20086;-71
2023/08/30 10:44:25;;;;;;;13.55;6.90;;;;;;;;;;5053202;28;20480;-71
2023/08/30 10:46:54;;;;;;;11.05;6.30;;;;;;;;;;5053232;28;20087;-72
2023/08/30 10:49:20;;;;;;;12.30;5.53;;;;;;;;;;5053214;28;20100;-72
2023/08/30 10:51:55;;;;;;;13.23;5.72;;;;;;;;;;5051591;28;20063;-71
2023/08/30 10:54:21;;;;;;;11.65;6.20;;;;;;;;;;5051975;28;20534;-71
2023/08/30 10:57:01;;;;;;;10.57;4.90;;;;;;;;;;5054070;28;20057;-71
2023/08/30 10:59:26;;;;;;;10.15;5.15;;;;;;;;;;5052259;28;20017;-71
2023/08/30 11:01:53;;;;;;;9.52;4.78;;;;;;;;;;5051753;28;20070;-71
2023/08/30 11:04:19;;;;;;;8.05;5.28;;;;;;;;;;5051748;28;20403;-71
2023/08/30 11:06:46;;;;;;;8.38;4.75;;;;;;;;;;5053196;28;20069;-70
2023/08/30 11:09:19;;;;;;;8.95;4.03;;;;;;;;;;5067330;28;20148;-71
2023/08/30 11:11:48;;;;;;;8.48;4.75;;;;;;;;;;5052333;28;20036;-71
2023/08/30 11:14:14;;;;;;;8.95;4.70;;;;;;;;;;5051822;28;20032;-71
2023/08/30 11:16:40;;;;;;;8.15;4.88;;;;;;;;;;5052936;28;20103;-71
2023/08/30 11:19:06;;;;;;;11.48;5.32;;;;;;;;;;5052853;28;20060;-71
2023/08/30 11:21:38;;;;;;;8.30;4.30;;;;;;;;;;5034792;28;20112;-71
2023/08/30 11:24:04;;;;;;;7.63;4.93;;;;;;;;;;5055327;28;20100;-71
2023/08/30 11:26:29;;;;;;;9.60;4.85;;;;;;;;;;5055511;28;20029;-72
2023/08/30 11:28:55;;;;;;;6.28;4.22;;;;;;;;;;5056142;28;20028;-71
2023/08/30 11:31:22;;;;;;;7.40;4.82;;;;;;;;;;5056724;28;20020;-71
2023/08/30 11:33:55;;;;;;;7.63;4.30;;;;;;;;;;5055458;28;20489;-71
2023/08/30 11:36:22;;;;;;;6.22;4.53;;;;;;;;;;5065614;22;20475;-73
2023/08/30 11:38:50;;;;;;;19.17;4.70;;;;;;;;;;5039491;28;20048;-73
2023/08/30 11:41:16;;;;;;;7.38;4.10;;;;;;;;;;5038744;28;20029;-74
2023/08/30 11:43:41;;;;;;;8.00;4.07;;;;;;;;;;5039133;28;20087;-74
2023/08/30 11:46:08;;;;;;;7.57;4.55;;;;;;;;;;5056293;28;20021;-73
2023/08/30 11:48:34;;;;;;;9.02;4.35;;;;;;;;;;5052312;28;20025;-74
2023/08/30 11:51:00;;;;;;;8.10;4.45;;;;;;;;;;5054480;28;20027;-74
2023/08/30 11:53:25;;;;;;;9.35;5.07;;;;;;;;;;5040956;28;20107;-74
2023/08/30 11:55:51;;;;;;;7.93;4.07;;;;;;;;;;5036273;28;20040;-74
2023/08/30 11:58:18;;;;;;;11.13;4.55;;;;;;;;;;5051286;28;20025;-74
2023/08/30 12:00:43;;;;;;;10.10;5.38;;;;;;;;;;5051538;28;20029;-74
2023/08/30 12:03:08;;;;;;;8.80;5.03;;;;;;;;;;5055730;28;20082;-74
2023/08/30 12:05:35;;;;;;;11.30;4.95;;;;;;;;;;5055709;28;20037;-74
2023/08/30 12:08:00;;;;;;;8.45;4.90;;;;;;;;;;5055572;28;20082;-74
2023/08/30 12:10:28;;;;;;;10.15;4.63;;;;;;;;;;5053519;28;20033;-76
2023/08/30 12:12:53;;;;;;;9.38;5.25;;;;;;;;;;5054609;28;20056;-76
2023/08/30 12:15:19;;;;;;;10.02;5.00;;;;;;;;;;5050369;28;20420;-76
2023/08/30 12:17:44;;;;;;;10.73;4.95;;;;;;;;;;5035830;28;20479;-76
2023/08/30 12:20:17;;;;;;;7.82;4.55;;;;;;;;;;5035539;28;20060;-76
2023/08/30 12:22:43;;;;;;;9.85;4.95;;;;;;;;;;5051126;28;20566;-76
2023/08/30 12:25:18;;;;;;;8.90;5.38;;;;;;;;;;5050707;28;20120;-75
2023/08/30 12:27:44;;;;;;;11.13;5.30;;;;;;;;;;5036183;28;20549;-76
2023/08/30 12:30:09;;;;;;;10.57;5.40;;;;;;;;;;5036054;28;20025;-76
2023/08/30 12:32:35;;;;;;;11.27;6.07;;;;;;;;;;5051523;28;20029;-74
2023/08/30 12:35:00;;;;;;;15.20;6.75;;;;;;;;;;5034502;28;20399;-75
2023/08/30 12:37:25;;;;;;;11.88;5.10;;;;;;;;;;5051274;28;20121;-74
2023/08/30 12:39:50;;;;;;;8.55;5.45;;;;;;;;;;5035433;28;20025;-74
2023/08/30 12:42:16;;;;;;;10.88;5.93;;;;;;;;;;5035867;28;20480;-74
2023/08/30 12:44:41;;;;;;;12.30;6.25;;;;;;;;;;5035729;28;20017;-74
2023/08/30 12:47:06;;;;;;;11.77;6.22;;;;;;;;;;5035759;28;20388;-74
2023/08/30 12:49:31;;;;;;;11.60;5.95;;;;;;;;;;5051067;28;20029;-74
2023/08/30 12:51:57;;;;;;;10.82;5.05;;;;;;;;;;5035528;28;20109;-74
2023/08/30 12:54:22;;;;;;;15.05;6.75;;;;;;;;;;5033015;28;20025;-74
2023/08/30 12:56:47;;;;;;;13.45;5.72;;;;;;;;;;5054431;28;20020;-74
2023/08/30 12:59:13;;;;;;;11.63;6.72;;;;;;;;;;5071541;28;20495;-74
2023/08/30 13:01:38;;;;;;;10.65;5.80;;;;;;;;;;5052398;28;20028;-74
2023/08/30 13:04:03;;;;;;;13.50;5.90;;;;;;;;;;5055062;28;20036;-74
2023/08/30 13:06:29;;;;;;;10.82;6.18;;;;;;;;;;5053957;28;20395;-75
2023/08/30 13:08:54;;;;;;;10.68;5.50;;;;;;;;;;5055626;28;20017;-75
2023/08/30 13:11:19;;;;;;;10.23;6.07;;;;;;;;;;5054177;28;20024;-75
2023/08/30 13:13:45;;;;;;;13.05;6.00;;;;;;;;;;5055691;28;20025;-75
2023/08/30 13:16:13;;;;;;;10.27;5.60;;;;;;;;;;5055047;28;20155;-75
2023/08/30 13:18:38;;;;;;;13.10;6.20;;;;;;;;;;5046907;28;20025;-75
2023/08/30 13:21:04;;;;;;;10.77;6.22;;;;;;;;;;5035152;28;20112;-75
2023/08/30 13:23:29;;;;;;;12.07;6.20;;;;;;;;;;5034910;28;20029;-75
2023/08/30 13:25:54;;;;;;;11.98;5.45;;;;;;;;;;5034094;28;20483;-75
2023/08/30 13:28:20;;;;;;;13.40;5.40;;;;;;;;;;5033716;28;20478;-75
2023/08/30 13:30:48;;;;;;;11.73;4.80;;;;;;;;;;5033089;28;20032;-75
2023/08/30 13:33:13;;;;;;;10.68;5.20;;;;;;;;;;5034180;28;20099;-75
2023/08/30 13:35:39;;;;;;;11.52;5.13;;;;;;;;;;5034993;28;20029;-75
2023/08/30 13:38:04;;;;;;;9.90;5.90;;;;;;;;;;5033492;28;20033;-75
2023/08/30 13:40:30;;;;;;;12.63;6.40;;;;;;;;;;5033981;28;20029;-75
2023/08/30 13:42:55;;;;;;;14.20;6.38;;;;;;;;;;5034743;28;20021;-75
2023/08/30 13:45:20;;;;;;;11.43;6.63;;;;;;;;;;5034524;28;20124;-75
2023/08/30 13:47:46;;;;;;;13.45;5.65;;;;;;;;;;5032919;28;20025;-75
2023/08/30 13:50:12;;;;;;;13.23;5.88;;;;;;;;;;5034382;28;20032;-75
2023/08/30 13:52:37;;;;;;;10.27;5.47;;;;;;;;;;5045999;28;20047;-75
2023/08/30 13:55:03;;;;;;;11.27;6.20;;;;;;;;;;5043673;28;20020;-75
2023/08/30 13:57:28;;;;;;;9.63;5.25;;;;;;;;;;5043962;28;20403;-75
2023/08/30 13:59:53;;;;;;;14.18;6.05;;;;;;;;;;5048914;28;20549;-75
2023/08/30 14:02:19;;;;;;;13.63;6.85;;;;;;;;;;5052929;28;20398;-75
2023/08/30 14:04:44;;;;;;;14.73;6.15;;;;;;;;;;5054275;28;20052;-75
2023/08/30 14:07:11;;;;;;;12.52;7.20;;;;;;;;;;5053034;28;20024;-75
2023/08/30 14:09:37;;;;;;;10.52;5.20;;;;;;;;;;5053788;28;20502;-75
2023/08/30 14:12:03;;;;;;;10.52;6.20;;;;;;;;;;5054211;28;20050;-75
2023/08/30 14:14:29;;;;;;;15.10;7.47;;;;;;;;;;5054392;28;20025;-75
2023/08/30 14:16:54;;;;;;;13.32;6.82;;;;;;;;;;5052823;28;20418;-75
2023/08/30 14:19:19;;;;;;;13.68;5.97;;;;;;;;;;5053645;28;20028;-75
2023/08/30 14:21:45;;;;;;;12.65;5.97;;;;;;;;;;5054693;28;20032;-75